sensor_id;sensor_type;location;lat;lon;timestamp;P1;durP1;ratioP1;P2;durP2;ratioP2
74170;SDS011;62526;50.948;6.590;2023-05-03T00:01:15;11.47;;;5.53;;
74170;SDS011;62526;50.948;6.590;2023-05-03T00:03:42;12.07;;;5.10;;
74170;SDS011;62526;50.948;6.590;2023-05-03T00:06:12;10.03;;;4.93;;
74170;SDS011;62526;50.948;6.590;2023-05-03T00:08:38;8.90;;;5.13;;
74170;SDS011;62526;50.948;6.590;2023-05-03T00:11:05;12.43;;;5.13;;
74170;SDS011;62526;50.948;6.590;2023-05-03T00:13:32;13.47;;;5.17;;
74170;SDS011;62526;50.948;6.590;2023-05-03T00:15:58;7.73;;;5.37;;
74170;SDS011;62526;50.948;6.590;2023-05-03T00:18:25;9.73;;;5.00;;
74170;SDS011;62526;50.948;6.590;2023-05-03T00:20:53;12.43;;;5.40;;
74170;SDS011;62526;50.948;6.590;2023-05-03T00:23:19;10.90;;;4.97;;
74170;SDS011;62526;50.948;6.590;2023-05-03T00:25:46;10.67;;;5.20;;
74170;SDS011;62526;50.948;6.590;2023-05-03T00:28:13;11.57;;;5.17;;
74170;SDS011;62526;50.948;6.590;2023-05-03T00:30:40;8.40;;;5.33;;
74170;SDS011;62526;50.948;6.590;2023-05-03T00:33:07;9.80;;;5.37;;
74170;SDS011;62526;50.948;6.590;2023-05-03T00:35:34;14.83;;;5.97;;
74170;SDS011;62526;50.948;6.590;2023-05-03T00:38:00;10.50;;;5.30;;
74170;SDS011;62526;50.948;6.590;2023-05-03T00:40:30;10.20;;;6.07;;
74170;SDS011;62526;50.948;6.590;2023-05-03T00:42:57;11.17;;;6.57;;
74170;SDS011;62526;50.948;6.590;2023-05-03T00:45:23;11.37;;;5.70;;
74170;SDS011;62526;50.948;6.590;2023-05-03T00:47:50;8.67;;;5.70;;
74170;SDS011;62526;50.948;6.590;2023-05-03T00:50:16;12.00;;;5.87;;
74170;SDS011;62526;50.948;6.590;2023-05-03T00:52:44;9.93;;;5.43;;
74170;SDS011;62526;50.948;6.590;2023-05-03T00:55:10;12.00;;;5.80;;
74170;SDS011;62526;50.948;6.590;2023-05-03T00:57:37;10.30;;;5.93;;
74170;SDS011;62526;50.948;6.590;2023-05-03T01:00:05;13.10;;;5.97;;
74170;SDS011;62526;50.948;6.590;2023-05-03T01:02:32;11.83;;;6.47;;
74170;SDS011;62526;50.948;6.590;2023-05-03T01:04:59;14.57;;;6.27;;
74170;SDS011;62526;50.948;6.590;2023-05-03T01:07:32;10.80;;;5.70;;
74170;SDS011;62526;50.948;6.590;2023-05-03T01:10:23;11.77;;;5.90;;
74170;SDS011;62526;50.948;6.590;2023-05-03T01:12:59;9.13;;;5.43;;
74170;SDS011;62526;50.948;6.590;2023-05-03T01:15:27;11.43;;;6.13;;
74170;SDS011;62526;50.948;6.590;2023-05-03T01:17:58;13.63;;;6.47;;
74170;SDS011;62526;50.948;6.590;2023-05-03T01:20:25;13.13;;;6.53;;
74170;SDS011;62526;50.948;6.590;2023-05-03T01:22:55;15.13;;;6.07;;
74170;SDS011;62526;50.948;6.590;2023-05-03T01:25:20;14.77;;;5.90;;
74170;SDS011;62526;50.948;6.590;2023-05-03T01:27:47;11.23;;;5.63;;
74170;SDS011;62526;50.948;6.590;2023-05-03T01:30:13;10.80;;;6.30;;
74170;SDS011;62526;50.948;6.590;2023-05-03T01:32:58;11.07;;;6.20;;
74170;SDS011;62526;50.948;6.590;2023-05-03T01:38:22;16.43;;;6.87;;
74170;SDS011;62526;50.948;6.590;2023-05-03T01:40:51;11.00;;;7.03;;
74170;SDS011;62526;50.948;6.590;2023-05-03T01:43:17;16.70;;;7.77;;
74170;SDS011;62526;50.948;6.590;2023-05-03T01:45:44;10.20;;;5.93;;
74170;SDS011;62526;50.948;6.590;2023-05-03T01:48:11;11.20;;;6.50;;
74170;SDS011;62526;50.948;6.590;2023-05-03T01:50:38;12.40;;;7.23;;
74170;SDS011;62526;50.948;6.590;2023-05-03T01:53:04;13.90;;;6.27;;
74170;SDS011;62526;50.948;6.590;2023-05-03T01:55:31;11.50;;;6.90;;
74170;SDS011;62526;50.948;6.590;2023-05-03T01:57:58;12.30;;;6.73;;
74170;SDS011;62526;50.948;6.590;2023-05-03T02:00:25;12.30;;;6.23;;
74170;SDS011;62526;50.948;6.590;2023-05-03T02:02:52;13.67;;;6.40;;
74170;SDS011;62526;50.948;6.590;2023-05-03T02:05:18;15.27;;;6.77;;
74170;SDS011;62526;50.948;6.590;2023-05-03T02:07:46;19.53;;;6.50;;
74170;SDS011;62526;50.948;6.590;2023-05-03T02:10:12;12.47;;;6.47;;
74170;SDS011;62526;50.948;6.590;2023-05-03T02:12:40;12.50;;;6.60;;
74170;SDS011;62526;50.948;6.590;2023-05-03T02:15:07;12.93;;;6.43;;
74170;SDS011;62526;50.948;6.590;2023-05-03T02:17:34;10.70;;;6.57;;
74170;SDS011;62526;50.948;6.590;2023-05-03T02:20:02;14.47;;;6.13;;
74170;SDS011;62526;50.948;6.590;2023-05-03T02:22:31;11.93;;;6.07;;
74170;SDS011;62526;50.948;6.590;2023-05-03T02:24:58;13.23;;;6.30;;
74170;SDS011;62526;50.948;6.590;2023-05-03T02:27:24;12.67;;;6.87;;
74170;SDS011;62526;50.948;6.590;2023-05-03T02:29:52;12.67;;;6.63;;
74170;SDS011;62526;50.948;6.590;2023-05-03T02:32:18;16.63;;;6.30;;
74170;SDS011;62526;50.948;6.590;2023-05-03T02:34:46;16.30;;;7.10;;
74170;SDS011;62526;50.948;6.590;2023-05-03T02:37:14;10.40;;;6.40;;
74170;SDS011;62526;50.948;6.590;2023-05-03T02:39:40;16.53;;;6.60;;
74170;SDS011;62526;50.948;6.590;2023-05-03T02:42:07;12.73;;;6.17;;
74170;SDS011;62526;50.948;6.590;2023-05-03T02:44:33;9.67;;;6.47;;
74170;SDS011;62526;50.948;6.590;2023-05-03T02:47:00;12.90;;;7.00;;
74170;SDS011;62526;50.948;6.590;2023-05-03T02:49:26;14.23;;;6.30;;
74170;SDS011;62526;50.948;6.590;2023-05-03T02:51:53;15.20;;;6.87;;
74170;SDS011;62526;50.948;6.590;2023-05-03T02:54:21;12.80;;;6.53;;
74170;SDS011;62526;50.948;6.590;2023-05-03T02:56:48;9.87;;;6.37;;
74170;SDS011;62526;50.948;6.590;2023-05-03T02:59:14;12.27;;;6.63;;
74170;SDS011;62526;50.948;6.590;2023-05-03T03:01:41;17.93;;;7.60;;
74170;SDS011;62526;50.948;6.590;2023-05-03T03:04:08;10.43;;;7.10;;
74170;SDS011;62526;50.948;6.590;2023-05-03T03:06:35;9.80;;;6.23;;
74170;SDS011;62526;50.948;6.590;2023-05-03T03:09:01;11.27;;;7.33;;
74170;SDS011;62526;50.948;6.590;2023-05-03T03:11:28;11.40;;;7.20;;
74170;SDS011;62526;50.948;6.590;2023-05-03T03:13:55;14.13;;;6.47;;
74170;SDS011;62526;50.948;6.590;2023-05-03T03:16:21;11.53;;;7.03;;
74170;SDS011;62526;50.948;6.590;2023-05-03T03:18:48;16.60;;;7.77;;
74170;SDS011;62526;50.948;6.590;2023-05-03T03:21:15;18.77;;;7.07;;
74170;SDS011;62526;50.948;6.590;2023-05-03T03:23:41;10.27;;;6.40;;
74170;SDS011;62526;50.948;6.590;2023-05-03T03:26:08;12.27;;;7.03;;
74170;SDS011;62526;50.948;6.590;2023-05-03T03:28:34;14.77;;;7.23;;
74170;SDS011;62526;50.948;6.590;2023-05-03T03:31:01;10.17;;;6.53;;
74170;SDS011;62526;50.948;6.590;2023-05-03T03:33:35;15.60;;;6.80;;
74170;SDS011;62526;50.948;6.590;2023-05-03T03:36:02;13.60;;;7.17;;
74170;SDS011;62526;50.948;6.590;2023-05-03T03:38:30;13.03;;;6.73;;
74170;SDS011;62526;50.948;6.590;2023-05-03T03:40:57;11.13;;;6.27;;
74170;SDS011;62526;50.948;6.590;2023-05-03T03:43:23;13.10;;;7.30;;
74170;SDS011;62526;50.948;6.590;2023-05-03T03:45:51;11.60;;;7.07;;
74170;SDS011;62526;50.948;6.590;2023-05-03T03:48:18;11.47;;;6.93;;
74170;SDS011;62526;50.948;6.590;2023-05-03T03:50:44;15.57;;;6.83;;
74170;SDS011;62526;50.948;6.590;2023-05-03T03:53:12;11.33;;;6.03;;
74170;SDS011;62526;50.948;6.590;2023-05-03T03:55:38;11.63;;;6.53;;
74170;SDS011;62526;50.948;6.590;2023-05-03T03:58:05;11.50;;;6.87;;
74170;SDS011;62526;50.948;6.590;2023-05-03T04:00:32;17.20;;;7.23;;
74170;SDS011;62526;50.948;6.590;2023-05-03T04:03:00;14.50;;;6.73;;
74170;SDS011;62526;50.948;6.590;2023-05-03T04:05:26;16.10;;;6.83;;
74170;SDS011;62526;50.948;6.590;2023-05-03T04:07:53;13.27;;;7.13;;
74170;SDS011;62526;50.948;6.590;2023-05-03T04:10:20;14.93;;;6.53;;
74170;SDS011;62526;50.948;6.590;2023-05-03T04:12:46;11.60;;;6.10;;
74170;SDS011;62526;50.948;6.590;2023-05-03T04:15:13;12.23;;;7.10;;
74170;SDS011;62526;50.948;6.590;2023-05-03T04:17:39;14.27;;;6.43;;
74170;SDS011;62526;50.948;6.590;2023-05-03T04:20:06;14.63;;;6.60;;
74170;SDS011;62526;50.948;6.590;2023-05-03T04:22:41;11.70;;;6.80;;
74170;SDS011;62526;50.948;6.590;2023-05-03T04:25:09;9.77;;;6.07;;
74170;SDS011;62526;50.948;6.590;2023-05-03T04:27:35;11.20;;;6.07;;
74170;SDS011;62526;50.948;6.590;2023-05-03T04:30:01;16.67;;;6.37;;
74170;SDS011;62526;50.948;6.590;2023-05-03T04:32:28;11.87;;;6.97;;
74170;SDS011;62526;50.948;6.590;2023-05-03T04:34:55;9.40;;;6.13;;
74170;SDS011;62526;50.948;6.590;2023-05-03T04:37:21;12.30;;;6.23;;
74170;SDS011;62526;50.948;6.590;2023-05-03T04:39:48;14.50;;;7.57;;
74170;SDS011;62526;50.948;6.590;2023-05-03T04:42:15;14.37;;;6.03;;
74170;SDS011;62526;50.948;6.590;2023-05-03T04:44:42;12.50;;;6.43;;
74170;SDS011;62526;50.948;6.590;2023-05-03T04:47:09;13.50;;;6.07;;
74170;SDS011;62526;50.948;6.590;2023-05-03T04:49:35;14.23;;;6.00;;
74170;SDS011;62526;50.948;6.590;2023-05-03T04:52:02;13.97;;;7.00;;
74170;SDS011;62526;50.948;6.590;2023-05-03T04:54:29;12.40;;;6.70;;
74170;SDS011;62526;50.948;6.590;2023-05-03T04:56:56;11.17;;;6.13;;
74170;SDS011;62526;50.948;6.590;2023-05-03T04:59:23;12.40;;;5.97;;
74170;SDS011;62526;50.948;6.590;2023-05-03T05:01:50;11.80;;;6.23;;
74170;SDS011;62526;50.948;6.590;2023-05-03T05:04:17;11.23;;;6.27;;
74170;SDS011;62526;50.948;6.590;2023-05-03T05:06:43;15.57;;;6.60;;
74170;SDS011;62526;50.948;6.590;2023-05-03T05:11:45;13.10;;;6.90;;
74170;SDS011;62526;50.948;6.590;2023-05-03T05:14:13;16.33;;;6.03;;
74170;SDS011;62526;50.948;6.590;2023-05-03T05:16:39;10.97;;;5.60;;
74170;SDS011;62526;50.948;6.590;2023-05-03T05:19:06;11.27;;;6.30;;
74170;SDS011;62526;50.948;6.590;2023-05-03T05:21:33;15.63;;;7.03;;
74170;SDS011;62526;50.948;6.590;2023-05-03T05:24:00;15.70;;;6.10;;
74170;SDS011;62526;50.948;6.590;2023-05-03T05:26:27;11.67;;;6.90;;
74170;SDS011;62526;50.948;6.590;2023-05-03T05:28:54;13.40;;;6.47;;
74170;SDS011;62526;50.948;6.590;2023-05-03T05:31:20;13.80;;;7.67;;
74170;SDS011;62526;50.948;6.590;2023-05-03T05:33:47;16.27;;;6.63;;
74170;SDS011;62526;50.948;6.590;2023-05-03T05:36:14;15.57;;;7.23;;
74170;SDS011;62526;50.948;6.590;2023-05-03T05:38:40;11.47;;;6.53;;
74170;SDS011;62526;50.948;6.590;2023-05-03T05:41:07;12.37;;;6.63;;
74170;SDS011;62526;50.948;6.590;2023-05-03T05:43:34;16.17;;;6.70;;
74170;SDS011;62526;50.948;6.590;2023-05-03T05:46:00;12.97;;;6.27;;
74170;SDS011;62526;50.948;6.590;2023-05-03T05:48:27;19.30;;;7.00;;
74170;SDS011;62526;50.948;6.590;2023-05-03T05:50:53;13.13;;;7.37;;
74170;SDS011;62526;50.948;6.590;2023-05-03T05:53:20;22.70;;;7.20;;
74170;SDS011;62526;50.948;6.590;2023-05-03T05:55:47;13.53;;;6.87;;
74170;SDS011;62526;50.948;6.590;2023-05-03T05:58:13;11.33;;;7.23;;
74170;SDS011;62526;50.948;6.590;2023-05-03T06:00:40;12.77;;;7.13;;
74170;SDS011;62526;50.948;6.590;2023-05-03T06:03:06;17.20;;;6.93;;
74170;SDS011;62526;50.948;6.590;2023-05-03T06:05:33;11.40;;;7.47;;
74170;SDS011;62526;50.948;6.590;2023-05-03T06:08:00;12.80;;;7.37;;
74170;SDS011;62526;50.948;6.590;2023-05-03T06:10:27;12.47;;;6.80;;
74170;SDS011;62526;50.948;6.590;2023-05-03T06:12:53;16.47;;;7.30;;
74170;SDS011;62526;50.948;6.590;2023-05-03T06:15:20;14.03;;;6.63;;
74170;SDS011;62526;50.948;6.590;2023-05-03T06:17:46;16.53;;;6.90;;
74170;SDS011;62526;50.948;6.590;2023-05-03T06:20:13;14.67;;;7.80;;
74170;SDS011;62526;50.948;6.590;2023-05-03T06:22:40;9.57;;;6.83;;
74170;SDS011;62526;50.948;6.590;2023-05-03T06:25:07;11.23;;;6.97;;
74170;SDS011;62526;50.948;6.590;2023-05-03T06:27:33;12.13;;;6.93;;
74170;SDS011;62526;50.948;6.590;2023-05-03T06:30:00;17.50;;;7.60;;
74170;SDS011;62526;50.948;6.590;2023-05-03T06:32:31;14.57;;;7.93;;
74170;SDS011;62526;50.948;6.590;2023-05-03T06:34:58;13.63;;;7.57;;
74170;SDS011;62526;50.948;6.590;2023-05-03T06:37:25;16.57;;;8.23;;
74170;SDS011;62526;50.948;6.590;2023-05-03T06:39:51;12.53;;;7.57;;
74170;SDS011;62526;50.948;6.590;2023-05-03T06:42:18;14.53;;;7.50;;
74170;SDS011;62526;50.948;6.590;2023-05-03T06:44:45;14.70;;;7.67;;
74170;SDS011;62526;50.948;6.590;2023-05-03T06:47:12;11.57;;;7.20;;
74170;SDS011;62526;50.948;6.590;2023-05-03T06:49:38;13.50;;;8.30;;
74170;SDS011;62526;50.948;6.590;2023-05-03T06:52:05;13.50;;;7.97;;
74170;SDS011;62526;50.948;6.590;2023-05-03T06:54:32;13.13;;;7.93;;
74170;SDS011;62526;50.948;6.590;2023-05-03T06:57:00;18.57;;;7.90;;
74170;SDS011;62526;50.948;6.590;2023-05-03T06:59:26;10.33;;;7.50;;
74170;SDS011;62526;50.948;6.590;2023-05-03T07:01:53;21.87;;;9.33;;
74170;SDS011;62526;50.948;6.590;2023-05-03T07:04:20;14.10;;;8.13;;
74170;SDS011;62526;50.948;6.590;2023-05-03T07:06:46;13.63;;;7.63;;
74170;SDS011;62526;50.948;6.590;2023-05-03T07:09:13;12.37;;;8.03;;
74170;SDS011;62526;50.948;6.590;2023-05-03T07:11:41;13.97;;;7.97;;
74170;SDS011;62526;50.948;6.590;2023-05-03T07:14:07;12.83;;;7.33;;
74170;SDS011;62526;50.948;6.590;2023-05-03T07:16:34;11.00;;;7.60;;
74170;SDS011;62526;50.948;6.590;2023-05-03T07:19:01;13.63;;;7.80;;
74170;SDS011;62526;50.948;6.590;2023-05-03T07:21:27;10.80;;;7.00;;
74170;SDS011;62526;50.948;6.590;2023-05-03T07:23:54;18.70;;;8.13;;
74170;SDS011;62526;50.948;6.590;2023-05-03T07:26:20;15.13;;;8.50;;
74170;SDS011;62526;50.948;6.590;2023-05-03T07:28:47;13.77;;;7.43;;
74170;SDS011;62526;50.948;6.590;2023-05-03T07:31:14;17.17;;;7.93;;
74170;SDS011;62526;50.948;6.590;2023-05-03T07:33:41;8.43;;;6.73;;
74170;SDS011;62526;50.948;6.590;2023-05-03T07:36:08;12.87;;;6.70;;
74170;SDS011;62526;50.948;6.590;2023-05-03T07:38:34;10.53;;;6.77;;
74170;SDS011;62526;50.948;6.590;2023-05-03T07:41:02;14.17;;;7.13;;
74170;SDS011;62526;50.948;6.590;2023-05-03T07:43:29;11.93;;;6.40;;
74170;SDS011;62526;50.948;6.590;2023-05-03T07:45:55;11.27;;;5.63;;
74170;SDS011;62526;50.948;6.590;2023-05-03T07:48:22;13.30;;;6.17;;
74170;SDS011;62526;50.948;6.590;2023-05-03T07:50:49;10.47;;;5.73;;
74170;SDS011;62526;50.948;6.590;2023-05-03T07:53:15;9.77;;;6.33;;
74170;SDS011;62526;50.948;6.590;2023-05-03T07:55:42;7.70;;;6.03;;
74170;SDS011;62526;50.948;6.590;2023-05-03T07:58:09;10.40;;;6.00;;
74170;SDS011;62526;50.948;6.590;2023-05-03T08:00:35;9.73;;;5.50;;
74170;SDS011;62526;50.948;6.590;2023-05-03T08:03:03;9.93;;;5.50;;
74170;SDS011;62526;50.948;6.590;2023-05-03T08:05:29;8.77;;;5.97;;
74170;SDS011;62526;50.948;6.590;2023-05-03T08:07:56;15.40;;;5.93;;
74170;SDS011;62526;50.948;6.590;2023-05-03T08:10:23;8.17;;;5.40;;
74170;SDS011;62526;50.948;6.590;2023-05-03T08:12:50;12.70;;;5.93;;
74170;SDS011;62526;50.948;6.590;2023-05-03T08:15:17;11.07;;;6.17;;
74170;SDS011;62526;50.948;6.590;2023-05-03T08:17:44;11.23;;;6.20;;
74170;SDS011;62526;50.948;6.590;2023-05-03T08:20:10;13.87;;;6.40;;
74170;SDS011;62526;50.948;6.590;2023-05-03T08:22:37;8.23;;;5.93;;
74170;SDS011;62526;50.948;6.590;2023-05-03T08:25:03;11.20;;;5.87;;
74170;SDS011;62526;50.948;6.590;2023-05-03T08:27:30;9.23;;;5.80;;
74170;SDS011;62526;50.948;6.590;2023-05-03T08:29:58;10.67;;;6.20;;
74170;SDS011;62526;50.948;6.590;2023-05-03T08:35:00;9.47;;;5.63;;
74170;SDS011;62526;50.948;6.590;2023-05-03T08:37:26;7.93;;;5.90;;
74170;SDS011;62526;50.948;6.590;2023-05-03T08:39:53;10.43;;;6.90;;
74170;SDS011;62526;50.948;6.590;2023-05-03T08:42:20;8.97;;;6.50;;
74170;SDS011;62526;50.948;6.590;2023-05-03T08:44:47;11.60;;;6.90;;
74170;SDS011;62526;50.948;6.590;2023-05-03T08:47:14;12.70;;;6.07;;
74170;SDS011;62526;50.948;6.590;2023-05-03T08:49:41;11.33;;;6.67;;
74170;SDS011;62526;50.948;6.590;2023-05-03T08:52:08;13.17;;;6.33;;
74170;SDS011;62526;50.948;6.590;2023-05-03T08:54:34;9.27;;;6.62;;
74170;SDS011;62526;50.948;6.590;2023-05-03T08:57:01;10.43;;;6.17;;
74170;SDS011;62526;50.948;6.590;2023-05-03T08:59:27;10.00;;;6.40;;
74170;SDS011;62526;50.948;6.590;2023-05-03T09:01:54;10.13;;;6.18;;
74170;SDS011;62526;50.948;6.590;2023-05-03T09:04:30;10.90;;;5.82;;
74170;SDS011;62526;50.948;6.590;2023-05-03T09:06:48;8.80;;;6.53;;
74170;SDS011;62526;50.948;6.590;2023-05-03T09:09:15;10.13;;;6.33;;
74170;SDS011;62526;50.948;6.590;2023-05-03T09:11:42;8.83;;;5.90;;
74170;SDS011;62526;50.948;6.590;2023-05-03T09:14:11;10.17;;;6.17;;
74170;SDS011;62526;50.948;6.590;2023-05-03T09:16:38;12.15;;;6.60;;
74170;SDS011;62526;50.948;6.590;2023-05-03T09:19:06;9.82;;;5.57;;
74170;SDS011;62526;50.948;6.590;2023-05-03T09:21:33;10.70;;;6.12;;
74170;SDS011;62526;50.948;6.590;2023-05-03T09:23:59;9.07;;;5.90;;
74170;SDS011;62526;50.948;6.590;2023-05-03T09:26:27;11.82;;;6.05;;
74170;SDS011;62526;50.948;6.590;2023-05-03T09:28:58;11.00;;;5.87;;
74170;SDS011;62526;50.948;6.590;2023-05-03T09:31:27;8.63;;;6.00;;
74170;SDS011;62526;50.948;6.590;2023-05-03T09:33:53;8.18;;;5.70;;
74170;SDS011;62526;50.948;6.590;2023-05-03T09:36:20;9.20;;;5.78;;
74170;SDS011;62526;50.948;6.590;2023-05-03T09:38:47;6.57;;;4.78;;
74170;SDS011;62526;50.948;6.590;2023-05-03T09:41:14;7.03;;;4.75;;
74170;SDS011;62526;50.948;6.590;2023-05-03T09:43:47;9.00;;;5.00;;
74170;SDS011;62526;50.948;6.590;2023-05-03T09:46:14;11.48;;;4.57;;
74170;SDS011;62526;50.948;6.590;2023-05-03T09:48:41;13.10;;;5.30;;
74170;SDS011;62526;50.948;6.590;2023-05-03T09:51:08;8.05;;;5.00;;
74170;SDS011;62526;50.948;6.590;2023-05-03T09:53:35;8.52;;;5.62;;
74170;SDS011;62526;50.948;6.590;2023-05-03T09:56:01;9.80;;;5.40;;
74170;SDS011;62526;50.948;6.590;2023-05-03T09:58:28;9.23;;;5.37;;
74170;SDS011;62526;50.948;6.590;2023-05-03T10:00:54;10.65;;;5.60;;
74170;SDS011;62526;50.948;6.590;2023-05-03T10:03:23;8.32;;;5.68;;
74170;SDS011;62526;50.948;6.590;2023-05-03T10:05:48;9.73;;;4.85;;
74170;SDS011;62526;50.948;6.590;2023-05-03T10:08:18;12.15;;;5.20;;
74170;SDS011;62526;50.948;6.590;2023-05-03T10:11:01;8.93;;;5.15;;
74170;SDS011;62526;50.948;6.590;2023-05-03T10:13:27;6.15;;;5.10;;
74170;SDS011;62526;50.948;6.590;2023-05-03T10:15:57;6.62;;;4.80;;
74170;SDS011;62526;50.948;6.590;2023-05-03T10:18:24;8.70;;;4.65;;
74170;SDS011;62526;50.948;6.590;2023-05-03T10:20:52;9.38;;;5.53;;
74170;SDS011;62526;50.948;6.590;2023-05-03T10:23:17;7.28;;;4.85;;
74170;SDS011;62526;50.948;6.590;2023-05-03T10:28:37;11.27;;;4.37;;
74170;SDS011;62526;50.948;6.590;2023-05-03T10:31:04;9.50;;;5.07;;
74170;SDS011;62526;50.948;6.590;2023-05-03T10:33:31;10.05;;;5.00;;
74170;SDS011;62526;50.948;6.590;2023-05-03T10:35:58;6.72;;;4.37;;
74170;SDS011;62526;50.948;6.590;2023-05-03T10:38:25;8.48;;;5.00;;
74170;SDS011;62526;50.948;6.590;2023-05-03T10:40:51;9.70;;;4.20;;
74170;SDS011;62526;50.948;6.590;2023-05-03T10:46:10;7.53;;;4.53;;
74170;SDS011;62526;50.948;6.590;2023-05-03T10:48:36;6.22;;;4.43;;
74170;SDS011;62526;50.948;6.590;2023-05-03T10:53:41;5.72;;;4.65;;
74170;SDS011;62526;50.948;6.590;2023-05-03T10:56:09;7.03;;;4.47;;
74170;SDS011;62526;50.948;6.590;2023-05-03T10:58:41;6.43;;;3.80;;
74170;SDS011;62526;50.948;6.590;2023-05-03T11:01:09;7.15;;;4.40;;
74170;SDS011;62526;50.948;6.590;2023-05-03T11:03:42;6.15;;;4.18;;
74170;SDS011;62526;50.948;6.590;2023-05-03T11:06:25;7.57;;;4.32;;
74170;SDS011;62526;50.948;6.590;2023-05-03T11:08:37;9.00;;;4.43;;
74170;SDS011;62526;50.948;6.590;2023-05-03T11:11:04;6.18;;;4.43;;
74170;SDS011;62526;50.948;6.590;2023-05-03T11:13:31;6.62;;;4.40;;
74170;SDS011;62526;50.948;6.590;2023-05-03T11:15:58;6.87;;;3.97;;
74170;SDS011;62526;50.948;6.590;2023-05-03T11:18:25;5.90;;;4.22;;
74170;SDS011;62526;50.948;6.590;2023-05-03T11:20:52;10.70;;;4.18;;
74170;SDS011;62526;50.948;6.590;2023-05-03T11:23:23;6.25;;;4.32;;
74170;SDS011;62526;50.948;6.590;2023-05-03T11:25:46;8.65;;;4.25;;
74170;SDS011;62526;50.948;6.590;2023-05-03T11:28:13;9.60;;;4.60;;
74170;SDS011;62526;50.948;6.590;2023-05-03T11:30:40;7.62;;;4.70;;
74170;SDS011;62526;50.948;6.590;2023-05-03T11:33:06;8.20;;;4.30;;
74170;SDS011;62526;50.948;6.590;2023-05-03T11:35:33;5.25;;;4.12;;
74170;SDS011;62526;50.948;6.590;2023-05-03T11:38:00;6.82;;;4.12;;
74170;SDS011;62526;50.948;6.590;2023-05-03T11:40:26;7.05;;;4.50;;
74170;SDS011;62526;50.948;6.590;2023-05-03T11:42:53;6.10;;;4.07;;
74170;SDS011;62526;50.948;6.590;2023-05-03T11:45:21;6.85;;;3.95;;
74170;SDS011;62526;50.948;6.590;2023-05-03T11:47:48;7.20;;;4.85;;
74170;SDS011;62526;50.948;6.590;2023-05-03T11:50:14;7.30;;;3.97;;
74170;SDS011;62526;50.948;6.590;2023-05-03T11:52:41;9.57;;;4.50;;
74170;SDS011;62526;50.948;6.590;2023-05-03T11:55:08;4.82;;;3.70;;
74170;SDS011;62526;50.948;6.590;2023-05-03T11:57:35;10.48;;;4.45;;
74170;SDS011;62526;50.948;6.590;2023-05-03T12:02:34;6.93;;;4.40;;
74170;SDS011;62526;50.948;6.590;2023-05-03T12:05:02;6.05;;;3.90;;
74170;SDS011;62526;50.948;6.590;2023-05-03T12:07:30;5.97;;;3.70;;
74170;SDS011;62526;50.948;6.590;2023-05-03T12:09:58;8.70;;;4.22;;
74170;SDS011;62526;50.948;6.590;2023-05-03T12:12:24;7.50;;;4.20;;
74170;SDS011;62526;50.948;6.590;2023-05-03T12:14:57;7.05;;;4.45;;
74170;SDS011;62526;50.948;6.590;2023-05-03T12:22:36;8.18;;;5.07;;
74170;SDS011;62526;50.948;6.590;2023-05-03T12:25:02;7.80;;;4.70;;
74170;SDS011;62526;50.948;6.590;2023-05-03T12:27:29;7.35;;;4.12;;
74170;SDS011;62526;50.948;6.590;2023-05-03T12:29:56;10.63;;;4.60;;
74170;SDS011;62526;50.948;6.590;2023-05-03T12:35:00;5.45;;;4.07;;
74170;SDS011;62526;50.948;6.590;2023-05-03T12:40:04;6.65;;;3.70;;
74170;SDS011;62526;50.948;6.590;2023-05-03T12:42:31;7.43;;;4.28;;
74170;SDS011;62526;50.948;6.590;2023-05-03T12:44:58;6.30;;;4.55;;
74170;SDS011;62526;50.948;6.590;2023-05-03T12:47:25;6.68;;;3.55;;
74170;SDS011;62526;50.948;6.590;2023-05-03T12:49:52;9.63;;;5.10;;
74170;SDS011;62526;50.948;6.590;2023-05-03T12:52:20;9.57;;;3.90;;
74170;SDS011;62526;50.948;6.590;2023-05-03T12:54:47;10.02;;;4.12;;
74170;SDS011;62526;50.948;6.590;2023-05-03T12:57:13;9.60;;;4.07;;
74170;SDS011;62526;50.948;6.590;2023-05-03T12:59:40;7.37;;;3.97;;
74170;SDS011;62526;50.948;6.590;2023-05-03T13:02:08;5.60;;;3.80;;
74170;SDS011;62526;50.948;6.590;2023-05-03T13:04:35;6.70;;;3.58;;
74170;SDS011;62526;50.948;6.590;2023-05-03T13:07:01;8.80;;;3.87;;
74170;SDS011;62526;50.948;6.590;2023-05-03T13:09:28;6.30;;;3.65;;
74170;SDS011;62526;50.948;6.590;2023-05-03T13:11:54;4.00;;;3.28;;
74170;SDS011;62526;50.948;6.590;2023-05-03T13:14:21;7.37;;;3.70;;
74170;SDS011;62526;50.948;6.590;2023-05-03T13:16:48;6.07;;;3.53;;
74170;SDS011;62526;50.948;6.590;2023-05-03T13:19:15;7.65;;;4.12;;
74170;SDS011;62526;50.948;6.590;2023-05-03T13:21:42;5.40;;;4.03;;
74170;SDS011;62526;50.948;6.590;2023-05-03T13:24:08;8.13;;;3.67;;
74170;SDS011;62526;50.948;6.590;2023-05-03T13:26:35;5.90;;;3.50;;
74170;SDS011;62526;50.948;6.590;2023-05-03T13:29:02;5.05;;;4.05;;
74170;SDS011;62526;50.948;6.590;2023-05-03T13:31:28;5.57;;;3.45;;
74170;SDS011;62526;50.948;6.590;2023-05-03T13:33:55;6.35;;;3.70;;
74170;SDS011;62526;50.948;6.590;2023-05-03T13:36:22;5.37;;;3.40;;
74170;SDS011;62526;50.948;6.590;2023-05-03T13:38:50;5.20;;;3.65;;
74170;SDS011;62526;50.948;6.590;2023-05-03T13:41:17;7.55;;;3.85;;
74170;SDS011;62526;50.948;6.590;2023-05-03T13:43:43;7.75;;;3.35;;
74170;SDS011;62526;50.948;6.590;2023-05-03T13:46:10;6.28;;;3.00;;
74170;SDS011;62526;50.948;6.590;2023-05-03T13:48:36;5.00;;;2.70;;
74170;SDS011;62526;50.948;6.590;2023-05-03T13:51:08;8.55;;;3.00;;
74170;SDS011;62526;50.948;6.590;2023-05-03T13:53:34;5.75;;;3.20;;
74170;SDS011;62526;50.948;6.590;2023-05-03T13:56:01;6.15;;;3.37;;
74170;SDS011;62526;50.948;6.590;2023-05-03T13:58:27;5.07;;;3.10;;
74170;SDS011;62526;50.948;6.590;2023-05-03T14:00:53;5.95;;;3.00;;
74170;SDS011;62526;50.948;6.590;2023-05-03T14:03:20;4.68;;;2.95;;
74170;SDS011;62526;50.948;6.590;2023-05-03T14:05:47;8.75;;;3.17;;
74170;SDS011;62526;50.948;6.590;2023-05-03T14:08:14;13.10;;;3.42;;
74170;SDS011;62526;50.948;6.590;2023-05-03T14:10:42;6.00;;;3.30;;
74170;SDS011;62526;50.948;6.590;2023-05-03T14:13:08;7.90;;;3.58;;
74170;SDS011;62526;50.948;6.590;2023-05-03T14:15:40;5.60;;;3.47;;
74170;SDS011;62526;50.948;6.590;2023-05-03T14:18:07;8.05;;;3.28;;
74170;SDS011;62526;50.948;6.590;2023-05-03T14:20:34;7.22;;;2.85;;
74170;SDS011;62526;50.948;6.590;2023-05-03T14:23:01;4.82;;;2.83;;
74170;SDS011;62526;50.948;6.590;2023-05-03T14:25:28;7.22;;;2.95;;
74170;SDS011;62526;50.948;6.590;2023-05-03T14:27:55;5.55;;;2.83;;
74170;SDS011;62526;50.948;6.590;2023-05-03T14:30:22;5.62;;;3.22;;
74170;SDS011;62526;50.948;6.590;2023-05-03T14:32:48;4.62;;;2.75;;
74170;SDS011;62526;50.948;6.590;2023-05-03T14:35:15;5.72;;;3.20;;
74170;SDS011;62526;50.948;6.590;2023-05-03T14:37:43;6.87;;;3.15;;
74170;SDS011;62526;50.948;6.590;2023-05-03T14:40:10;5.57;;;3.20;;
74170;SDS011;62526;50.948;6.590;2023-05-03T14:42:37;4.70;;;3.00;;
74170;SDS011;62526;50.948;6.590;2023-05-03T14:45:04;4.30;;;2.97;;
74170;SDS011;62526;50.948;6.590;2023-05-03T14:47:31;3.62;;;2.92;;
74170;SDS011;62526;50.948;6.590;2023-05-03T14:49:57;5.07;;;2.92;;
74170;SDS011;62526;50.948;6.590;2023-05-03T14:52:24;3.78;;;2.87;;
74170;SDS011;62526;50.948;6.590;2023-05-03T14:54:51;3.55;;;2.80;;
74170;SDS011;62526;50.948;6.590;2023-05-03T14:57:17;8.55;;;3.03;;
74170;SDS011;62526;50.948;6.590;2023-05-03T14:59:44;6.68;;;3.22;;
74170;SDS011;62526;50.948;6.590;2023-05-03T15:02:10;5.75;;;3.10;;
74170;SDS011;62526;50.948;6.590;2023-05-03T15:04:38;7.62;;;3.17;;
74170;SDS011;62526;50.948;6.590;2023-05-03T15:07:04;6.72;;;2.80;;
74170;SDS011;62526;50.948;6.590;2023-05-03T15:09:32;6.35;;;2.58;;